Time;durP1;ratioP1;P1;durP2;ratioP2;P2;SDS_P1;SDS_P2;PMS_P1;PMS_P2;Temp;Humidity;BMP_temperature;BMP_pressure;BME280_temperature;BME280_humidity;BME280_pressure;Samples;Min_cycle;Max_cycle;Signal;HPM_P1;HPM_P2
2024/01/05 00:01:59;;;;;;;9.02;6.00;;;;;;;11.24;81.85;100820.28;5087258;28;20051;-86
2024/01/05 00:04:24;;;;;;;7.72;5.82;;;;;;;11.01;81.51;100793.84;5087830;28;20024;-86
2024/01/05 00:06:51;;;;;;;8.25;6.30;;;;;;;11.10;81.69;100812.63;5083309;28;20035;-88
2024/01/05 00:09:16;;;;;;;8.15;6.25;;;;;;;11.24;81.33;100831.66;5076137;28;20509;-87
2024/01/05 00:11:42;;;;;;;9.23;6.05;;;;;;;11.21;81.56;100828.84;5088848;28;20034;-88
2024/01/05 00:14:08;;;;;;;8.10;5.88;;;;;;;11.27;81.01;100847.47;5088120;28;20028;-87
2024/01/05 00:16:34;;;;;;;9.52;6.35;;;;;;;11.25;80.94;100833.44;5087789;28;20032;-87
2024/01/05 00:19:00;;;;;;;9.63;6.00;;;;;;;11.03;81.31;100813.13;5088764;28;20439;-86
2024/01/05 00:21:27;;;;;;;9.10;6.28;;;;;;;11.29;81.35;100856.31;5082002;28;20084;-86
2024/01/05 00:23:54;;;;;;;8.25;5.60;;;;;;;11.05;81.66;100823.63;5073802;28;20041;-87
2024/01/05 00:26:21;;;;;;;8.43;6.00;;;;;;;10.88;81.67;100794.94;5073166;28;20032;-88
2024/01/05 00:29:05;;;;;;;;;;;;;;;11.31;81.53;100872.97;5089505;28;20089;-87
2024/01/05 00:31:31;;;;;;;8.52;5.75;;;;;;;10.70;81.59;100773.03;5088274;28;19916;-88
2024/01/05 00:34:15;;;;;;;8.20;5.72;;;;;;;10.97;81.44;100828.47;5086624;28;20031;-88
2024/01/05 00:37:03;;;;;;;;;;;;;;;;;;;;;
2024/01/05 00:44:29;;;;;;;;;;;;;;;;;;;;;
2024/01/05 00:46:54;;;;;;;;;;;;;;;11.29;81.35;100905.97;5030639;28;20404;-88
2024/01/05 00:49:20;;;;;;;8.40;5.28;;;;;;;10.95;81.00;100851.91;5080684;28;21273;-89
2024/01/05 00:51:47;;;;;;;8.90;5.97;;;;;;;11.06;81.45;100872.47;5092019;28;20462;-88
2024/01/05 00:54:13;;;;;;;7.95;5.45;;;;;;;11.03;81.40;100869.69;5086863;28;20576;-88
2024/01/05 00:56:38;;;;;;;7.38;5.35;;;;;;;11.06;81.28;100875.09;5078065;28;20035;-89
2024/01/05 00:59:05;;;;;;;7.95;5.63;;;;;;;10.90;81.32;100850.78;5072473;28;20090;-88
2024/01/05 01:01:32;;;;;;;8.25;5.60;;;;;;;11.20;81.41;100902.88;5078935;28;20051;-89
2024/01/05 01:03:58;;;;;;;7.47;5.13;;;;;;;10.92;81.24;100853.44;5088844;28;20524;-89
2024/01/05 01:06:24;;;;;;;7.85;5.25;;;;;;;10.96;81.08;100865.84;5074466;28;20028;-89
2024/01/05 01:08:50;;;;;;;7.13;5.28;;;;;;;10.91;81.22;100867.34;5089815;28;20036;-88
2024/01/05 01:11:18;;;;;;;7.57;5.30;;;;;;;11.04;81.38;100893.31;5092904;28;20031;-87
2024/01/05 01:13:45;;;;;;;7.82;5.38;;;;;;;11.25;81.40;100926.66;5076434;28;20067;-89
2024/01/05 01:16:12;;;;;;;7.63;5.40;;;;;;;11.06;81.37;100901.22;5098388;28;20027;-89
2024/01/05 01:19:01;;;;;;;7.72;4.95;;;;;;;11.24;81.46;100932.69;5088209;28;20062;-89
2024/01/05 01:21:27;;;;;;;7.03;5.13;;;;;;;10.98;81.36;100893.88;5076233;28;20771;-89
2024/01/05 01:23:55;;;;;;;6.07;4.80;;;;;;;10.74;81.30;100846.41;5089941;28;20082;-88
2024/01/05 01:26:20;;;;;;;8.07;5.30;;;;;;;10.69;81.18;100837.44;5090390;28;20032;-89
2024/01/05 01:28:47;;;;;;;8.38;5.25;;;;;;;11.02;81.03;100901.88;5104267;28;20028;-89
2024/01/05 01:31:12;;;;;;;7.45;5.30;;;;;;;11.12;80.99;100925.09;5076134;28;20023;-89
2024/01/05 01:33:39;;;;;;;7.07;4.95;;;;;;;11.03;81.17;100908.88;5092643;28;20024;-89
2024/01/05 01:36:06;;;;;;;;;;;;;;;11.21;81.09;100942.16;5093312;28;20046;-90
2024/01/05 01:38:32;;;;;;;8.05;4.97;;;;;;;11.10;81.29;100930.22;5089669;28;19916;-89
2024/01/05 01:40:59;;;;;;;7.43;5.07;;;;;;;10.97;81.12;100906.84;5073652;28;20047;-89
2024/01/05 01:43:26;;;;;;;6.90;5.05;;;;;;;10.80;81.16;100870.25;5089195;28;20115;-88
2024/01/05 01:45:58;;;;;;;6.35;4.78;;;;;;;10.80;81.27;100867.66;5073121;28;20630;-88
2024/01/05 01:48:24;;;;;;;8.18;5.03;;;;;;;10.92;81.33;100890.03;5099092;28;20413;-89
2024/01/05 01:50:50;;;;;;;6.63;4.80;;;;;;;11.02;80.60;100901.88;5084855;28;20025;-88
2024/01/05 01:53:18;;;;;;;6.65;4.75;;;;;;;11.05;80.94;100916.03;5082499;28;20039;-89
2024/01/05 01:55:46;;;;;;;6.97;5.00;;;;;;;10.89;80.98;100885.53;5071959;28;20114;-89
2024/01/05 01:58:15;;;;;;;6.82;5.03;;;;;;;11.06;81.03;100909.97;5087164;28;20052;-89
2024/01/05 02:00:42;;;;;;;7.78;5.07;;;;;;;11.07;81.14;100917.00;5074926;28;20027;-89
2024/01/05 02:03:08;;;;;;;7.85;4.78;;;;;;;10.94;80.89;100889.31;5085238;28;20039;-88
2024/01/05 02:05:34;;;;;;;7.38;4.82;;;;;;;11.02;81.04;100912.34;5074957;28;20032;-88
2024/01/05 02:08:00;;;;;;;7.22;4.85;;;;;;;11.04;81.42;100902.88;5075272;28;20127;-89
2024/01/05 02:10:30;;;;;;;7.57;5.00;;;;;;;10.70;81.21;100848.78;5091237;28;20016;-89
2024/01/05 02:13:03;;;;;;;6.65;4.45;;;;;;;10.62;81.03;100827.44;5075385;28;20101;-89
2024/01/05 02:15:29;;;;;;;7.72;4.80;;;;;;;10.97;81.48;100888.56;5092472;28;20027;-89
2024/01/05 02:17:54;;;;;;;7.72;5.13;;;;;;;10.74;81.30;100858.59;5068663;28;20032;-89
2024/01/05 02:20:20;;;;;;;5.93;4.35;;;;;;;10.77;81.18;100858.72;5081452;28;20416;-88
2024/01/05 02:22:49;;;;;;;6.50;4.78;;;;;;;11.12;81.34;100922.47;5074395;28;20100;-88
2024/01/05 02:25:15;;;;;;;6.43;4.68;;;;;;;10.76;81.77;100864.78;5067024;28;20031;-88
2024/01/05 02:27:41;;;;;;;6.72;5.00;;;;;;;10.97;81.86;100909.47;5074819;28;20554;-89
2024/01/05 02:30:07;;;;;;;7.05;4.85;;;;;;;10.98;81.85;100913.88;5070499;28;20035;-89
2024/01/05 02:32:34;;;;;;;6.78;4.78;;;;;;;10.88;81.85;100886.34;5072807;28;20020;-88
2024/01/05 02:34:59;;;;;;;5.75;4.65;;;;;;;11.11;81.94;100946.78;5087623;28;20056;-89
2024/01/05 02:37:25;;;;;;;6.35;4.70;;;;;;;10.89;81.95;100908.16;5087220;28;20058;-88
2024/01/05 02:39:52;;;;;;;7.00;5.00;;;;;;;11.07;81.82;100957.91;5080364;28;20027;-89
2024/01/05 02:42:17;;;;;;;6.78;4.90;;;;;;;10.72;81.63;100902.00;5080688;28;20036;-89
2024/01/05 02:44:45;;;;;;;6.82;4.72;;;;;;;10.88;81.65;100937.69;5079440;28;20040;-89
2024/01/05 02:47:11;;;;;;;5.85;4.40;;;;;;;10.67;82.00;100906.97;5083754;28;20032;-88
2024/01/05 02:49:37;;;;;;;6.00;4.50;;;;;;;10.86;81.84;100949.75;5084843;28;20123;-89
2024/01/05 02:52:04;;;;;;;5.75;4.20;;;;;;;10.95;82.20;100966.88;5073302;28;20131;-88
2024/01/05 02:54:29;;;;;;;6.07;4.60;;;;;;;10.78;82.12;100925.84;5082357;28;20035;-90
2024/01/05 02:56:55;;;;;;;5.18;4.32;;;;;;;10.82;82.23;100946.09;5088593;28;20020;-88
2024/01/05 02:59:22;;;;;;;6.57;4.80;;;;;;;10.71;81.67;100921.06;5086143;28;20032;-88
2024/01/05 03:01:49;;;;;;;6.55;4.80;;;;;;;11.02;82.46;100995.94;5085276;28;20040;-89
2024/01/05 03:04:15;;;;;;;6.05;4.40;;;;;;;10.85;82.04;100953.22;5087808;28;20019;-88
2024/01/05 03:06:42;;;;;;;5.60;4.60;;;;;;;10.82;82.01;100947.81;5086520;28;20035;-89
2024/01/05 03:09:08;;;;;;;6.95;4.97;;;;;;;10.95;82.20;100979.94;5077996;28;20039;-89
2024/01/05 03:11:37;;;;;;;5.78;4.47;;;;;;;11.02;82.10;100993.34;5088387;28;20023;-90
2024/01/05 03:14:03;;;;;;;6.05;4.20;;;;;;;10.77;82.13;100950.16;5075909;28;20093;-89
2024/01/05 03:16:29;;;;;;;5.50;4.40;;;;;;;10.44;82.34;100900.47;5061550;28;20024;-90
2024/01/05 03:18:56;;;;;;;6.82;5.00;;;;;;;10.41;81.54;100897.66;5075088;28;20040;-88
2024/01/05 03:21:22;;;;;;;7.22;4.80;;;;;;;10.94;82.02;100998.13;5068112;28;20067;-87
2024/01/05 03:23:48;;;;;;;5.55;4.13;;;;;;;10.84;82.02;100977.50;5069357;28;20665;-88
2024/01/05 03:26:14;;;;;;;6.63;4.38;;;;;;;10.83;81.94;100978.34;5079990;28;20023;-89
2024/01/05 03:28:59;;;;;;;7.35;4.72;;;;;;;11.03;81.53;101016.03;5083754;28;20043;-89
2024/01/05 03:31:32;;;;;;;5.43;4.22;;;;;;;11.09;81.76;101019.00;5074756;28;20040;-88
2024/01/05 03:33:58;;;;;;;7.50;4.28;;;;;;;10.77;80.87;100976.28;5070050;28;20139;-88
2024/01/05 03:36:25;;;;;;;5.70;4.07;;;;;;;10.96;81.55;101009.56;5074498;28;20107;-89
2024/01/05 03:38:53;;;;;;;5.20;3.90;;;;;;;10.63;81.31;100962.44;5083615;28;20056;-89
2024/01/05 03:41:22;;;;;;;6.07;3.75;;;;;;;10.93;81.12;101015.53;5087033;28;20636;-88
2024/01/05 03:44:04;;;;;;;5.50;3.97;;;;;;;10.76;81.13;100985.84;5067045;28;20419;-89
2024/01/05 03:46:30;;;;;;;5.07;3.80;;;;;;;10.85;80.71;101000.22;5042479;28;20108;-89
2024/01/05 03:48:56;;;;;;;6.68;4.07;;;;;;;10.94;81.03;101038.25;5039065;28;20124;-89
2024/01/05 03:51:21;;;;;;;5.38;4.15;;;;;;;10.92;81.07;101018.03;5027525;28;20084;-89
2024/01/05 03:53:48;;;;;;;4.70;3.65;;;;;;;10.78;80.70;101002.50;5034571;28;20029;-89
2024/01/05 03:56:14;;;;;;;6.50;4.30;;;;;;;10.74;80.84;100991.78;5023105;28;20103;-89
2024/01/05 03:58:42;;;;;;;5.38;3.85;;;;;;;10.70;81.38;100995.94;5029725;28;20033;-90
2024/01/05 04:01:08;;;;;;;5.93;4.20;;;;;;;10.50;81.03;100967.81;5032913;28;20069;-90
2024/01/05 04:03:34;;;;;;;5.25;3.88;;;;;;;10.30;81.28;100935.31;5041745;28;20522;-90
2024/01/05 04:06:00;;;;;;;5.88;4.10;;;;;;;10.74;80.78;101007.47;5029504;28;20030;-90
2024/01/05 04:08:26;;;;;;;4.65;3.78;;;;;;;11.05;80.89;101062.38;5027031;28;20022;-90
2024/01/05 04:10:52;;;;;;;4.95;4.00;;;;;;;10.76;81.07;101025.00;5041880;28;20037;-90
2024/01/05 04:13:17;;;;;;;5.72;3.92;;;;;;;10.60;80.91;101001.44;5041185;28;20137;-89
2024/01/05 04:15:44;;;;;;;6.38;4.45;;;;;;;10.98;81.12;101079.41;5039830;28;20581;-91
2024/01/05 04:18:11;;;;;;;4.47;3.92;;;;;;;10.83;80.60;101054.09;5024713;28;20056;-90
2024/01/05 04:20:36;;;;;;;4.68;3.70;;;;;;;10.80;80.80;101062.66;5046845;28;20029;-90
2024/01/05 04:23:02;;;;;;;6.30;3.80;;;;;;;10.72;80.65;101049.16;5029465;28;20098;-89
2024/01/05 04:25:31;;;;;;;5.03;3.90;;;;;;;11.06;80.63;101111.19;5030034;28;20021;-90
2024/01/05 04:27:57;;;;;;;5.32;3.97;;;;;;;10.95;80.41;101089.66;5020727;28;20109;-89
2024/01/05 04:30:24;;;;;;;5.80;4.10;;;;;;;10.78;80.81;101069.53;5025887;28;20025;-90
2024/01/05 04:32:51;;;;;;;5.40;4.20;;;;;;;10.65;80.66;101044.41;5037659;28;20116;-91
2024/01/05 04:35:17;;;;;;;5.75;3.95;;;;;;;10.73;80.78;101068.34;5032368;28;20030;-90
2024/01/05 04:37:43;;;;;;;5.15;3.83;;;;;;;10.67;80.88;101055.84;5044653;28;20536;-90
2024/01/05 04:42:53;;;;;;;5.80;4.00;;;;;;;10.99;80.33;101124.72;5026211;28;20059;-89
2024/01/05 04:45:20;;;;;;;;;;;;;;;11.03;80.35;101137.16;5028305;28;20072;-90
2024/01/05 04:47:50;;;;;;;6.15;3.70;;;;;;;10.85;80.43;101121.31;5024671;28;20611;-89
2024/01/05 04:50:16;;;;;;;4.43;3.53;;;;;;;10.80;80.17;101109.69;5035782;28;20085;-88
2024/01/05 04:52:44;;;;;;;5.63;3.53;;;;;;;10.48;80.32;101061.69;5022676;28;20120;-89
2024/01/05 04:55:14;;;;;;;4.45;3.65;;;;;;;10.63;80.23;101090.41;5030708;28;20140;-89
2024/01/05 04:57:41;;;;;;;4.80;3.45;;;;;;;10.42;80.36;101063.06;5015876;28;20565;-88
2024/01/05 05:00:08;;;;;;;4.80;3.70;;;;;;;10.73;80.48;101124.13;5029663;28;20083;-89
2024/01/05 05:02:40;;;;;;;5.20;3.63;;;;;;;10.63;80.22;101102.59;5013521;28;20039;-88
2024/01/05 05:05:05;;;;;;;3.95;3.30;;;;;;;10.72;80.55;101137.97;5013156;28;20495;-89
2024/01/05 05:07:40;;;;;;;4.93;3.60;;;;;;;10.76;80.55;101145.19;5025075;28;20026;-89
2024/01/05 05:10:07;;;;;;;5.20;3.53;;;;;;;10.73;80.13;101147.63;5014663;28;20094;-89
2024/01/05 05:12:37;;;;;;;4.85;3.65;;;;;;;10.66;80.34;101141.94;5024346;28;20029;-88
2024/01/05 05:15:05;;;;;;;6.00;3.90;;;;;;;10.33;80.15;101087.78;5023369;28;20083;-88
2024/01/05 05:17:31;;;;;;;5.78;3.70;;;;;;;10.54;80.46;101134.25;5012964;28;20502;-87
2024/01/05 05:19:56;;;;;;;5.05;3.75;;;;;;;11.00;80.75;101223.22;5005526;28;20030;-88
2024/01/05 05:22:25;;;;;;;6.25;3.72;;;;;;;10.69;80.39;101174.38;5015578;28;20097;-88
2024/01/05 05:24:51;;;;;;;5.32;3.88;;;;;;;10.74;80.41;101183.38;5012241;28;20040;-87
2024/01/05 05:27:18;;;;;;;4.85;3.58;;;;;;;10.69;80.74;101176.06;5025973;28;20026;-88
2024/01/05 05:29:44;;;;;;;4.40;3.45;;;;;;;10.67;80.51;101178.59;5000346;28;20115;-87
2024/01/05 05:32:10;;;;;;;5.60;3.75;;;;;;;11.00;80.43;101241.50;5042101;28;20752;-88
2024/01/05 05:34:36;;;;;;;4.72;3.53;;;;;;;10.83;80.85;101227.41;5012292;28;20030;-88
2024/01/05 05:37:03;;;;;;;4.82;3.60;;;;;;;10.87;80.41;101228.53;5021911;28;20054;-90
2024/01/05 05:39:29;;;;;;;5.30;3.80;;;;;;;10.83;80.84;101229.13;5019083;28;20668;-88
2024/01/05 05:41:55;;;;;;;4.40;3.28;;;;;;;10.68;80.55;101197.78;5028293;28;20030;-89
2024/01/05 05:44:20;;;;;;;4.47;3.40;;;;;;;10.87;80.25;101234.63;5029080;28;20052;-87
2024/01/05 05:46:46;;;;;;;4.75;3.65;;;;;;;10.78;80.46;101219.31;5022382;28;20041;-89
2024/01/05 05:49:14;;;;;;;4.70;3.35;;;;;;;10.79;80.19;101228.97;5021615;28;20087;-90
2024/01/05 05:51:45;;;;;;;4.55;3.42;;;;;;;10.84;80.32;101244.00;5012639;28;20033;-90
2024/01/05 05:54:11;;;;;;;5.70;3.83;;;;;;;10.40;80.51;101172.59;5038602;28;20029;-90
2024/01/05 05:56:39;;;;;;;4.45;3.60;;;;;;;10.76;80.52;101235.72;5025079;28;20030;-88
2024/01/05 05:59:06;;;;;;;5.43;3.80;;;;;;;10.99;80.32;101285.03;5011114;28;20034;-88
2024/01/05 06:01:32;;;;;;;6.20;4.07;;;;;;;10.33;80.68;101175.66;5004789;28;20030;-89
2024/01/05 06:03:57;;;;;;;4.97;3.67;;;;;;;10.78;80.50;101255.00;5025775;28;20698;-87
2024/01/05 06:06:26;;;;;;;4.55;3.67;;;;;;;10.90;80.44;101286.16;5018337;28;20039;-88
2024/01/05 06:08:51;;;;;;;5.40;3.70;;;;;;;10.44;80.25;101205.91;5022886;28;20030;-89
2024/01/05 06:11:18;;;;;;;4.63;3.83;;;;;;;10.78;80.18;101266.34;5032326;28;20034;-88
2024/01/05 06:13:53;;;;;;;4.15;3.45;;;;;;;10.79;80.50;101276.00;5025989;28;20029;-89
2024/01/05 06:16:20;;;;;;;5.55;3.85;;;;;;;10.73;80.14;101273.00;5005651;28;20033;-88
2024/01/05 06:18:50;;;;;;;4.78;3.72;;;;;;;10.73;80.18;101267.78;5021810;28;20479;-89
2024/01/05 06:21:19;;;;;;;5.10;3.90;;;;;;;10.43;80.01;101226.72;5004700;28;20126;-89
2024/01/05 06:23:45;;;;;;;6.03;4.03;;;;;;;10.40;80.31;101216.97;5020125;28;20045;-88
2024/01/05 06:26:11;;;;;;;4.65;3.65;;;;;;;10.50;80.09;101236.75;5009806;28;20038;-85
2024/01/05 06:28:37;;;;;;;5.40;4.03;;;;;;;10.78;80.56;101287.25;5014585;28;20085;-87
2024/01/05 06:31:03;;;;;;;5.50;3.88;;;;;;;11.02;80.54;101340.91;5025168;28;20033;-87
2024/01/05 06:33:31;;;;;;;5.35;3.83;;;;;;;10.81;80.31;101312.63;5023437;28;20108;-89
2024/01/05 06:35:56;;;;;;;5.40;3.67;;;;;;;11.04;80.29;101353.25;5029185;28;20053;-89
2024/01/05 06:38:23;;;;;;;5.50;4.07;;;;;;;10.96;80.49;101341.41;5023785;28;20142;-88
2024/01/05 06:40:49;;;;;;;6.70;4.10;;;;;;;10.88;79.91;101332.19;5015355;28;20040;-88
2024/01/05 06:43:15;;;;;;;5.40;3.60;;;;;;;10.58;80.06;101293.84;5023237;28;20050;-87
2024/01/05 06:45:40;;;;;;;4.53;3.60;;;;;;;10.82;80.29;101337.09;5015095;28;20030;-89
2024/01/05 06:48:06;;;;;;;5.05;3.80;;;;;;;10.72;80.15;101336.50;5003725;28;20045;-88
2024/01/05 06:50:32;;;;;;;5.55;3.95;;;;;;;10.71;80.67;101339.00;5020431;28;20041;-87
2024/01/05 06:52:58;;;;;;;8.27;4.55;;;;;;;10.72;80.51;101343.44;5013411;28;20037;-87
2024/01/05 06:55:44;;;;;;;7.32;4.75;;;;;;;10.21;79.99;101258.38;5016041;28;20029;-88
2024/01/05 06:58:27;;;;;;;6.95;4.75;;;;;;;10.34;79.63;101287.97;5016324;28;20161;-88
2024/01/05 07:00:54;;;;;;;5.75;4.07;;;;;;;10.84;79.77;101380.78;5002971;28;20543;-88
2024/01/05 07:03:21;;;;;;;4.85;3.97;;;;;;;10.93;80.26;101396.13;5023524;28;20025;-88
2024/01/05 07:05:46;;;;;;;6.55;4.60;;;;;;;10.86;80.07;101375.63;5004154;28;20544;-88
2024/01/05 07:08:12;;;;;;;6.68;4.32;;;;;;;10.87;79.66;101383.56;5029026;28;20153;-87
2024/01/05 07:10:38;;;;;;;6.28;4.25;;;;;;;10.99;79.86;101394.78;5027561;28;20785;-87
2024/01/05 07:13:07;;;;;;;5.03;3.63;;;;;;;10.90;79.48;101386.38;5006164;28;20168;-87
2024/01/05 07:15:33;;;;;;;5.65;3.92;;;;;;;10.38;79.28;101312.56;5020561;28;20415;-88
2024/01/05 07:17:58;;;;;;;5.13;3.63;;;;;;;10.87;79.94;101385.28;5024311;28;20030;-87
2024/01/05 07:20:25;;;;;;;5.32;3.53;;;;;;;10.62;79.52;101352.38;5024826;28;20033;-87
2024/01/05 07:22:50;;;;;;;4.75;3.75;;;;;;;10.66;79.53;101350.88;5030900;28;20033;-87
2024/01/05 07:25:19;;;;;;;5.72;3.67;;;;;;;10.85;79.04;101393.00;5030842;28;20018;-86
2024/01/05 07:27:45;;;;;;;4.55;3.55;;;;;;;10.26;79.28;101280.44;5012369;28;20105;-89
2024/01/05 07:30:11;;;;;;;5.53;3.50;;;;;;;10.47;79.55;101317.47;5022191;28;20601;-87
2024/01/05 07:32:37;;;;;;;5.05;3.53;;;;;;;10.84;79.86;101386.00;5025538;28;20026;-90
2024/01/05 07:35:04;;;;;;;;;;;;;;;10.97;79.46;101406.84;5033285;28;20491;-88
2024/01/05 07:37:29;;;;;;;4.65;3.72;;;;;;;10.78;79.05;101386.50;5046974;28;19909;-87
2024/01/05 07:39:55;;;;;;;4.63;3.45;;;;;;;10.94;79.16;101421.44;5028889;28;20036;-87
2024/01/05 07:42:21;;;;;;;5.18;3.28;;;;;;;10.86;79.28;101415.75;4998193;28;20050;-88
2024/01/05 07:44:47;;;;;;;4.63;3.45;;;;;;;10.83;79.22;101394.63;5033298;28;20025;-87
2024/01/05 07:47:13;;;;;;;4.95;3.47;;;;;;;10.74;79.02;101368.84;5016374;28;20036;-88
2024/01/05 07:49:40;;;;;;;6.38;3.67;;;;;;;10.90;79.29;101411.59;5020918;28;20026;-88
2024/01/05 07:52:06;;;;;;;5.35;3.50;;;;;;;10.84;79.33;101404.28;5016426;28;20040;-86
2024/01/05 07:54:33;;;;;;;4.70;3.47;;;;;;;10.90;79.33;101417.75;5028439;28;20022;-88
2024/01/05 07:56:58;;;;;;;4.80;3.58;;;;;;;10.86;79.51;101409.59;5016310;28;20159;-87
2024/01/05 07:59:24;;;;;;;4.75;3.30;;;;;;;10.75;79.22;101390.63;5029817;28;20147;-87
2024/01/05 08:01:53;;;;;;;5.45;3.53;;;;;;;10.53;79.24;101370.09;5025011;28;20030;-87
2024/01/05 08:04:18;;;;;;;4.22;3.30;;;;;;;10.94;79.15;101445.88;5022046;28;20026;-87
2024/01/05 08:06:47;;;;;;;6.20;3.38;;;;;;;10.84;79.19;101429.50;5013176;28;20028;-89
2024/01/05 08:09:13;;;;;;;4.85;3.50;;;;;;;10.73;79.55;101405.31;5015686;28;20122;-88
2024/01/05 08:11:39;;;;;;;5.05;3.80;;;;;;;10.62;79.07;101394.16;5029201;28;20113;-88
2024/01/05 08:14:09;;;;;;;3.72;3.15;;;;;;;10.70;79.13;101410.34;5013260;28;20037;-87
2024/01/05 08:16:35;;;;;;;4.30;3.30;;;;;;;10.81;79.53;101438.03;5016671;28;20038;-86
2024/01/05 08:19:01;;;;;;;4.80;3.42;;;;;;;10.74;79.04;101441.09;5019085;28;20034;-87
2024/01/05 08:21:26;;;;;;;6.18;3.65;;;;;;;10.47;79.01;101385.38;5029751;28;20021;-86
2024/01/05 08:23:52;;;;;;;4.43;3.25;;;;;;;10.75;78.95;101427.19;5028032;28;20124;-86
2024/01/05 08:26:18;;;;;;;5.78;3.60;;;;;;;10.77;78.80;101438.66;5028193;28;20113;-88
2024/01/05 08:28:44;;;;;;;3.72;3.20;;;;;;;10.65;79.42;101428.34;5019113;28;20458;-87
2024/01/05 08:31:10;;;;;;;5.72;3.40;;;;;;;10.64;79.04;101420.41;5001370;28;20076;-86
2024/01/05 08:33:37;;;;;;;3.90;3.30;;;;;;;10.78;79.80;101445.69;5018992;28;20022;-87
2024/01/05 08:36:02;;;;;;;4.20;3.10;;;;;;;10.87;80.25;101464.56;5027757;28;20140;-87
2024/01/05 08:38:29;;;;;;;3.88;2.97;;;;;;;10.90;80.06;101458.63;5032659;28;20093;-88
2024/01/05 08:40:55;;;;;;;5.00;3.50;;;;;;;10.88;79.85;101461.16;5032349;28;20045;-87
2024/01/05 08:43:21;;;;;;;4.80;3.58;;;;;;;10.52;79.51;101391.78;5030288;28;20046;-88
2024/01/05 08:45:47;;;;;;;5.22;3.95;;;;;;;10.80;79.59;101436.25;4997591;28;20036;-87
2024/01/05 08:48:14;;;;;;;5.32;3.10;;;;;;;10.66;79.82;101429.22;5024391;28;20030;-87
2024/01/05 08:50:40;;;;;;;5.10;3.70;;;;;;;10.87;79.73;101454.13;5020510;28;20084;-87
2024/01/05 08:53:09;;;;;;;3.83;3.28;;;;;;;11.03;79.96;101484.75;5036619;28;20029;-88
2024/01/05 08:55:35;;;;;;;4.28;3.42;;;;;;;10.90;79.73;101462.16;5022496;28;20038;-87
2024/01/05 08:58:02;;;;;;;4.50;3.47;;;;;;;10.98;79.98;101479.25;5024772;28;20018;-87
2024/01/05 09:00:28;;;;;;;5.05;3.53;;;;;;;11.00;79.43;101481.94;5019658;28;20034;-87
2024/01/05 09:02:55;;;;;;;4.75;3.53;;;;;;;10.90;79.86;101462.16;5020808;28;20064;-86
2024/01/05 09:05:22;;;;;;;5.70;3.88;;;;;;;10.88;79.75;101457.63;5012287;28;20061;-87
2024/01/05 09:07:48;;;;;;;7.07;4.20;;;;;;;11.02;79.58;101474.19;5027466;28;20034;-85
2024/01/05 09:10:14;;;;;;;5.22;3.60;;;;;;;10.86;79.75;101451.41;5026288;28;20600;-86
2024/01/05 09:12:40;;;;;;;5.07;3.72;;;;;;;10.87;79.65;101438.44;5022780;28;20069;-86
2024/01/05 09:15:07;;;;;;;5.75;3.83;;;;;;;10.78;79.67;101438.75;5032726;28;20021;-85
2024/01/05 09:17:33;;;;;;;5.80;4.05;;;;;;;10.96;79.81;101466.84;5017061;28;20038;-87
2024/01/05 09:19:59;;;;;;;;;;;;;;;11.00;79.72;101468.84;5015159;28;20038;-86
2024/01/05 09:22:25;;;;;;;4.82;3.60;;;;;;;10.97;79.79;101469.56;5037532;28;19978;-87
2024/01/05 09:24:50;;;;;;;4.45;3.25;;;;;;;10.81;79.75;101438.03;5004639;28;20136;-86
2024/01/05 09:27:16;;;;;;;4.85;3.63;;;;;;;10.83;79.14;101438.16;5017411;28;20034;-87
2024/01/05 09:29:42;;;;;;;4.05;3.17;;;;;;;10.80;79.76;101442.38;5022776;28;20491;-87
2024/01/05 09:32:07;;;;;;;5.82;3.85;;;;;;;10.55;79.97;101389.38;5025810;28;20030;-86
2024/01/05 09:34:34;;;;;;;5.38;3.70;;;;;;;10.91;79.99;101455.22;5013863;28;20044;-88
2024/01/05 09:37:00;;;;;;;4.40;3.50;;;;;;;10.99;79.94;101467.97;5020921;28;20123;-87
2024/01/05 09:39:25;;;;;;;5.00;3.63;;;;;;;10.95;79.73;101452.91;5024492;28;20071;-86
2024/01/05 09:41:51;;;;;;;4.45;3.13;;;;;;;10.73;80.15;101426.19;5023291;28;20088;-86
2024/01/05 09:44:17;;;;;;;4.80;3.60;;;;;;;10.89;80.47;101449.00;5012771;28;20030;-85
2024/01/05 09:46:44;;;;;;;5.30;3.70;;;;;;;10.69;79.86;101396.38;5022443;28;20104;-85
2024/01/05 09:49:13;;;;;;;5.90;3.30;;;;;;;10.95;80.15;101454.63;5014371;28;20052;-87
2024/01/05 09:51:39;;;;;;;5.40;3.40;;;;;;;10.58;80.10;101373.88;5030183;28;20483;-87
2024/01/05 09:54:05;;;;;;;4.18;3.13;;;;;;;10.54;79.97;101364.03;5018239;28;20025;-85
2024/01/05 09:56:31;;;;;;;4.25;3.10;;;;;;;10.64;80.03;101376.88;5027388;28;20127;-85
2024/01/05 09:58:57;;;;;;;4.60;3.42;;;;;;;11.09;79.67;101445.00;5020476;28;20026;-87
2024/01/05 10:01:28;;;;;;;5.55;3.55;;;;;;;11.01;80.05;101418.41;5040774;28;20044;-85
2024/01/05 10:03:54;;;;;;;4.30;3.45;;;;;;;11.05;80.27;101436.09;5023728;28;20034;-87
2024/01/05 10:06:21;;;;;;;5.25;3.20;;;;;;;11.04;79.56;101425.53;5023898;28;20455;-86
2024/01/05 10:08:50;;;;;;;3.80;3.05;;;;;;;11.02;79.71;101427.16;5030242;28;20026;-87
2024/01/05 10:11:27;;;;;;;4.68;3.17;;;;;;;10.94;80.28;101424.97;5025680;28;20061;-86
2024/01/05 10:13:54;;;;;;;5.53;3.33;;;;;;;10.83;80.17;101399.84;5011997;28;20034;-86
2024/01/05 10:16:23;;;;;;;4.80;3.42;;;;;;;10.78;79.96;101385.63;5010387;28;20029;-86
2024/01/05 10:18:49;;;;;;;4.10;3.50;;;;;;;10.84;79.46;101365.09;5023972;28;20029;-86
2024/01/05 10:21:16;;;;;;;5.10;3.53;;;;;;;10.83;79.85;101365.00;5025555;28;20030;-86
2024/01/05 10:23:44;;;;;;;;;;;;;;;11.06;79.97;101411.75;5013478;28;20052;-86
2024/01/05 10:26:17;;;;;;;5.07;3.42;;;;;;;11.00;79.53;101395.69;5026503;28;19917;-86
2024/01/05 10:28:43;;;;;;;6.28;3.88;;;;;;;10.94;79.75;101395.28;5010367;28;20029;-85
2024/01/05 10:31:16;;;;;;;4.50;3.35;;;;;;;10.90;80.27;101390.69;5010012;28;20509;-85
2024/01/05 10:33:48;;;;;;;4.70;3.53;;;;;;;11.08;79.96;101406.63;5011189;28;20026;-86
2024/01/05 10:36:18;;;;;;;5.03;3.60;;;;;;;11.03;80.06;101400.19;5014940;28;20034;-85
2024/01/05 10:38:44;;;;;;;4.47;3.38;;;;;;;10.94;80.05;101387.47;5010146;28;20105;-86
2024/01/05 10:41:10;;;;;;;7.97;3.92;;;;;;;10.80;79.82;101364.00;5009944;28;20033;-86
2024/01/05 10:43:37;;;;;;;5.85;3.42;;;;;;;10.92;79.43;101368.16;5009547;28;20107;-86
2024/01/05 10:46:04;;;;;;;5.50;3.35;;;;;;;10.53;79.75;101308.31;5027325;28;20032;-87
2024/01/05 10:48:30;;;;;;;6.47;3.40;;;;;;;11.08;79.45;101401.41;5011689;28;20044;-85
2024/01/05 10:50:56;;;;;;;;;;;;;;;11.04;80.10;101400.28;5017820;28;20029;-88
2024/01/05 10:53:22;;;;;;;4.32;3.30;;;;;;;10.68;79.34;101321.44;5019980;28;19914;-88
2024/01/05 10:55:49;;;;;;;4.93;3.65;;;;;;;10.87;79.33;101357.44;5026872;28;20032;-88
2024/01/05 10:58:14;;;;;;;5.00;3.20;;;;;;;10.70;79.32;101345.94;5025177;28;20496;-88
2024/01/05 11:00:40;;;;;;;6.45;3.60;;;;;;;10.98;79.53;101392.06;5030082;28;20057;-89
2024/01/05 11:03:18;;;;;;;4.47;3.28;;;;;;;11.13;79.26;101415.66;5028797;28;20403;-89
2024/01/05 11:05:45;;;;;;;5.40;3.33;;;;;;;11.10;79.71;101408.53;5029454;28;20049;-88
2024/01/05 11:08:20;;;;;;;3.97;3.22;;;;;;;11.14;79.38;101405.28;5011331;28;20470;-88
2024/01/05 11:11:07;;;;;;;5.10;3.38;;;;;;;11.21;79.00;101407.47;5046014;28;20053;-89
2024/01/05 11:13:56;;;;;;;5.47;3.10;;;;;;;11.16;79.26;101397.56;5012530;28;20060;-88
2024/01/05 11:16:43;;;;;;;3.83;3.05;;;;;;;11.13;79.35;101399.97;5028241;28;20038;-87
2024/01/05 11:19:20;;;;;;;4.68;3.17;;;;;;;11.16;78.59;101387.09;5030000;28;20029;-87
2024/01/05 11:22:02;;;;;;;4.50;2.72;;;;;;;10.94;78.01;101361.31;5020993;28;20618;-87
2024/01/05 11:24:28;;;;;;;5.50;3.30;;;;;;;10.90;77.93;101339.34;5042815;28;20120;-87
2024/01/05 11:26:55;;;;;;;5.03;2.70;;;;;;;11.14;78.08;101379.16;5006231;28;20610;-86
2024/01/05 11:29:46;;;;;;;4.15;3.03;;;;;;;11.16;78.12;101374.03;5009098;28;20038;-87
2024/01/05 11:32:33;;;;;;;3.13;2.70;;;;;;;11.15;77.51;101374.81;5027560;28;20033;-87
2024/01/05 11:35:00;;;;;;;3.30;2.80;;;;;;;10.89;78.28;101337.53;5026428;28;20025;-87
2024/01/05 11:37:31;;;;;;;3.65;2.80;;;;;;;11.03;78.06;101350.53;5006253;28;20638;-87
2024/01/05 11:39:59;;;;;;;3.40;2.65;;;;;;;11.22;77.56;101379.63;5018895;28;20494;-88